»·PEaware :: N623JB KAJO-KVCV

N623JB :: KAJO-KVCV

FLIGHT INFORMATION

Flight Status: Arrived
Operator: Privately registered:
United States
More flights under this callsign
Pilot: Jonathan B. (32222)
Aircraft: CIRRUS SR-22
(SR22)
More flights by this aircraft type
Origin: KAJO Corona Mun
United States
Destination: KVCV Socal Logistics
United States
More flights between these airports :: More routes between these airports
Route: PDZ V442 APLES
File this flight plan on PilotEdge
Remarks:
Altitude:
(Current/Filed)
11,000ft
Speed:
(Current/Filed)
150kts
Departed: 21-Jan-21 12:18 PM
Arrived: 21-Jan-21 01:28 PM
Distance/Time
Traveled:
6758nm/1:10
Distance/Time
To Go:
Arrived

Flight Plot

Page will automatically refresh every two minutes.


Map Options




Map Legend


Flown Route
Filed Route
Departure Airport
Arrival Airport
Navaid (VOR, NDB)
Fix

Horizontal Profiles

Position Reports

Time Latitude Longitude Heading Altitude Ground
Speed
21-Jan-21 11:48 33.896517 -117.598335 93 534ft 0kts
21-Jan-21 11:49 33.896517 -117.598335 93 534ft 0kts
21-Jan-21 11:50 33.896517 -117.598335 93 534ft 0kts
21-Jan-21 11:51 33.896517 -117.598335 93 534ft 0kts
21-Jan-21 11:52 33.896517 -117.598335 93 534ft 0kts
21-Jan-21 11:53 33.896517 -117.598335 93 534ft 0kts
21-Jan-21 11:54 33.896517 -117.598335 93 534ft 0kts
21-Jan-21 11:55 33.896517 -117.598335 93 534ft 0kts
21-Jan-21 11:56 33.896517 -117.598335 93 534ft 0kts
21-Jan-21 11:57 33.896517 -117.598335 93 534ft 0kts
21-Jan-21 11:58 33.896517 -117.598335 93 534ft 0kts
21-Jan-21 11:59 33.896517 -117.598335 93 534ft 0kts
21-Jan-21 12:00 33.896517 -117.598335 93 534ft 0kts
21-Jan-21 12:01 33.896517 -117.598335 93 534ft 0kts
21-Jan-21 12:02 33.896517 -117.598335 93 534ft 0kts
21-Jan-21 12:03 33.896517 -117.598335 93 534ft 0kts
21-Jan-21 12:04 33.896517 -117.598335 93 534ft 0kts
21-Jan-21 12:05 33.896517 -117.598335 93 534ft 0kts
21-Jan-21 12:06 33.896517 -117.598335 93 534ft 0kts
21-Jan-21 12:07 33.896517 -117.598335 93 534ft 0kts
21-Jan-21 12:08 33.896517 -117.598335 93 534ft 0kts
21-Jan-21 12:09 33.896508 -117.598068 80 535ft 9kts
21-Jan-21 12:10 33.897259 -117.600918 268 530ft 16kts
21-Jan-21 12:11 33.897196 -117.607103 279 518ft 3kts
21-Jan-21 12:12 33.897202 -117.607139 286 518ft 0kts
21-Jan-21 12:13 33.897202 -117.607139 286 518ft 0kts
21-Jan-21 12:14 33.897202 -117.607139 286 518ft 0kts
21-Jan-21 12:15 33.897202 -117.607139 286 518ft 0kts
21-Jan-21 12:16 33.897608 -117.606432 90 520ft 17kts
21-Jan-21 12:17 33.897478 -117.580724 82 1215ft 84kts
21-Jan-21 12:18 33.906691 -117.550102 52 2211ft 108kts
21-Jan-21 12:19 33.923924 -117.519014 39 3558ft 114kts
21-Jan-21 12:20 33.949924 -117.497809 4 4791ft 116kts
21-Jan-21 12:21 33.939466 -117.512477 189 5830ft 120kts
21-Jan-21 12:22 33.911129 -117.541110 256 5981ft 140kts
21-Jan-21 12:23 33.933489 -117.537607 74 6274ft 132kts
21-Jan-21 12:24 33.959539 -117.516022 31 7558ft 115kts
21-Jan-21 12:25 33.942436 -117.504912 211 8500ft 109kts
21-Jan-21 12:26 33.916605 -117.532641 234 8956ft 144kts
21-Jan-21 12:27 33.939511 -117.541145 40 8992ft 147kts
21-Jan-21 12:28 33.966070 -117.505195 93 9019ft 146kts
21-Jan-21 12:29 33.938863 -117.508542 223 9021ft 130kts
21-Jan-21 12:30 33.915397 -117.539386 282 9027ft 129kts
21-Jan-21 12:31 33.944733 -117.529135 42 9004ft 140kts
21-Jan-21 12:32 33.973977 -117.498005 33 9004ft 140kts
21-Jan-21 12:33 34.008219 -117.476148 26 9006ft 140kts
21-Jan-21 12:34 34.043354 -117.454980 26 9009ft 147kts
21-Jan-21 12:35 34.080847 -117.432460 25 9005ft 152kts
21-Jan-21 12:37 34.117605 -117.410345 25 9681ft 139kts
21-Jan-21 12:38 34.150629 -117.390456 24 10678ft 126kts
21-Jan-21 12:39 34.185709 -117.369120 23 10985ft 158kts
21-Jan-21 12:40 34.224103 -117.345821 22 10994ft 148kts
21-Jan-21 12:41 34.260691 -117.324079 24 10988ft 146kts
21-Jan-21 12:42 34.297038 -117.301898 25 10997ft 149kts
21-Jan-21 12:43 34.334492 -117.279402 25 10983ft 150kts
21-Jan-21 12:44 34.371580 -117.256956 26 10847ft 149kts
21-Jan-21 12:45 34.406476 -117.235791 26 10237ft 135kts
21-Jan-21 12:46 34.440395 -117.215203 26 9645ft 139kts
21-Jan-21 12:47 34.475346 -117.193967 26 9087ft 138kts
21-Jan-21 12:48 34.507326 -117.174508 26 9003ft 126kts
21-Jan-21 12:49 34.540970 -117.154055 25 9049ft 141kts
21-Jan-21 12:50 34.581650 -117.146511 6 8664ft 159kts
21-Jan-21 12:50 34.618720 -117.146380 346 8069ft 159kts
21-Jan-21 12:52 34.668748 -117.161418 336 7250ft 157kts
21-Jan-21 12:53 34.706869 -117.186165 327 6658ft 150kts
21-Jan-21 12:53 34.731175 -117.211444 311 6576ft 128kts
21-Jan-21 12:55 34.758018 -117.245127 299 6648ft 114kts
21-Jan-21 12:56 34.773350 -117.278775 294 6634ft 115kts
21-Jan-21 12:56 34.785897 -117.311448 280 6142ft 134kts
21-Jan-21 12:57 34.793997 -117.356330 279 5323ft 130kts
21-Jan-21 12:58 34.776488 -117.376426 175 4464ft 114kts
21-Jan-21 12:59 34.750312 -117.376293 187 4355ft 89kts
21-Jan-21 13:00 34.724732 -117.378536 185 4351ft 93kts
21-Jan-21 13:01 34.699783 -117.380748 185 4343ft 88kts
21-Jan-21 13:02 34.671668 -117.382951 183 3746ft 109kts
21-Jan-21 13:03 34.644288 -117.385037 183 3274ft 90kts
21-Jan-21 13:05 34.611993 -117.387562 183 3512ft 125kts
21-Jan-21 13:05 34.582473 -117.398778 225 3961ft 146kts
21-Jan-21 13:06 34.591646 -117.427596 315 5475ft 118kts
21-Jan-21 13:07 34.606614 -117.465802 275 6018ft 148kts
21-Jan-21 13:08 34.614249 -117.514909 278 6041ft 140kts
21-Jan-21 13:09 34.621611 -117.559809 278 6008ft 128kts
21-Jan-21 13:10 34.628141 -117.599928 278 5998ft 117kts
21-Jan-21 13:11 34.634492 -117.638205 264 5999ft 114kts
21-Jan-21 13:12 34.607451 -117.648099 183 6000ft 110kts
21-Jan-21 13:13 34.576734 -117.649119 182 6000ft 113kts
21-Jan-21 13:14 34.543851 -117.646568 155 6003ft 125kts
21-Jan-21 13:15 34.513021 -117.626051 152 6003ft 127kts
21-Jan-21 13:16 34.486198 -117.598586 131 6007ft 128kts
21-Jan-21 13:17 34.469527 -117.561744 94 6011ft 132kts
21-Jan-21 13:18 34.472011 -117.518052 64 6046ft 132kts
21-Jan-21 13:19 34.490541 -117.477198 62 5672ft 154kts
21-Jan-21 13:20 34.516213 -117.433531 44 4766ft 159kts
21-Jan-21 13:21 34.543911 -117.401640 43 3967ft 117kts
21-Jan-21 13:22 34.562561 -117.380043 43 3862ft 77kts
21-Jan-21 13:23 34.581683 -117.357535 44 3870ft 106kts
21-Jan-21 13:24 34.603078 -117.332230 42 3880ft 106kts
21-Jan-21 13:25 34.615540 -117.348457 234 3531ft 83kts
21-Jan-21 13:26 34.599879 -117.367375 223 2876ft 70kts
21-Jan-21 13:27 34.593983 -117.372725 181 2860ft 0kts
21-Jan-21 13:28 34.593983 -117.372725 181 2860ft 0kts
21-Jan-21 13:29 34.593983 -117.372725 181 2860ft 0kts
21-Jan-21 13:30 34.592580 -117.373117 214 2861ft 0kts
21-Jan-21 13:31 34.592409 -117.371777 192 2860ft 7kts
21-Jan-21 13:32 34.592402 -117.372342 318 2860ft 0kts
21-Jan-21 13:33 34.592402 -117.372342 318 2860ft 0kts
21-Jan-21 13:34 0.000408 0.013975 359 3ft 0kts
21-Jan-21 13:35 0.000408 0.013975 359 3ft 0kts
21-Jan-21 13:36 0.000408 0.013975 359 3ft 0kts
21-Jan-21 13:37 0.000408 0.013975 359 3ft 0kts
21-Jan-21 13:38 0.000408 0.013975 359 3ft 0kts
21-Jan-21 13:39 0.000408 0.013975 359 3ft 0kts
21-Jan-21 13:40 0.000408 0.013975 359 3ft 0kts
21-Jan-21 13:41 0.000408 0.013975 359 3ft 0kts
21-Jan-21 13:42 0.000408 0.013975 359 3ft 0kts

Navigation Log

Ident Type
Flight plan parsing failed, navigation log unavailable